Time;durP1;ratioP1;P1;durP2;ratioP2;P2;SDS_P1;SDS_P2;PMS_P1;PMS_P2;Temp;Humidity;BMP_temperature;BMP_pressure;BME280_temperature;BME280_humidity;BME280_pressure;Samples;Min_cycle;Max_cycle;Signal;HPM_P1;HPM_P2
2023/10/11 00:06:58;;;;;;;11.20;6.72;;;;;;;15.63;100.00;100607.00;4862318;27;5514988;-85
2023/10/11 00:12:22;;;;;;;14.18;7.47;;;;;;;15.66;100.00;100605.00;5027497;28;20050;-85
2023/10/11 00:14:57;;;;;;;15.40;7.15;;;;;;;15.69;100.00;100604.81;5043762;28;20094;-83
2023/10/11 00:20:50;;;;;;;15.15;7.35;;;;;;;15.59;100.00;100585.00;4902753;27;7637520;-85
2023/10/11 00:23:26;;;;;;;14.15;7.15;;;;;;;15.71;100.00;100605.56;5152718;27;20046;-82
2023/10/11 00:25:58;;;;;;;16.60;7.45;;;;;;;15.74;100.00;100599.19;5157136;27;20439;-82
2023/10/11 00:28:31;;;;;;;13.23;6.90;;;;;;;15.68;100.00;100592.41;5157787;27;20039;-84
2023/10/11 00:31:04;;;;;;;12.75;7.38;;;;;;;15.68;100.00;100592.41;5175570;27;20114;-85
2023/10/11 00:33:53;;;;;;;13.93;7.60;;;;;;;15.55;100.00;100580.84;5160484;27;20083;-84
2023/10/11 00:36:29;;;;;;;13.52;8.05;;;;;;;15.51;100.00;100578.41;5171291;27;20060;-84
2023/10/11 00:39:16;;;;;;;15.95;7.78;;;;;;;15.49;100.00;100583.00;5170687;27;20045;-86
2023/10/11 00:45:02;;;;;;;16.65;7.22;;;;;;;15.58;100.00;100588.66;5155711;27;20099;-87
2023/10/11 00:47:46;;;;;;;12.50;7.68;;;;;;;15.41;100.00;100551.47;5168114;27;20406;-84
2023/10/11 00:50:31;;;;;;;14.73;7.63;;;;;;;15.67;100.00;100580.03;5151625;27;20043;-85
2023/10/11 00:53:34;;;;;;;15.85;7.25;;;;;;;15.53;100.00;100566.69;5161594;27;20110;-84
2023/10/11 00:56:09;;;;;;;14.82;7.63;;;;;;;15.66;100.00;100577.44;5188007;27;20054;-84
2023/10/11 00:58:43;;;;;;;13.70;7.15;;;;;;;15.67;100.00;100579.16;5164039;27;20510;-82
2023/10/11 01:01:22;;;;;;;16.33;7.15;;;;;;;15.66;100.00;100577.44;5161099;27;20118;-83
2023/10/11 01:03:53;;;;;;;13.35;6.93;;;;;;;15.64;100.00;100574.88;5168156;27;20039;-83
2023/10/11 01:06:25;;;;;;;14.38;7.43;;;;;;;15.50;100.00;100552.69;5162607;27;20038;-84
2023/10/11 01:12:35;;;;;;;16.90;7.43;;;;;;;15.59;100.00;100565.44;5176076;27;20126;-85
2023/10/11 01:15:11;;;;;;;14.25;7.65;;;;;;;15.55;100.00;100570.16;5138285;27;20110;-85
2023/10/11 01:18:56;;;;;;;16.27;8.02;;;;;;;15.52;100.00;100564.97;5130648;27;20821;-84
2023/10/11 01:21:37;;;;;;;16.63;8.30;;;;;;;15.44;100.00;100554.78;5116411;28;20100;-85
2023/10/11 01:27:03;;;;;;;18.98;8.07;;;;;;;15.41;100.00;100562.16;5140910;27;20032;-85
2023/10/11 01:43:10;;;;;;;17.17;8.45;;;;;;;15.18;100.00;100557.41;4790595;27;7148390;-84
2023/10/11 01:45:40;;;;;;;18.95;8.18;;;;;;;15.13;100.00;100552.34;5034339;28;20101;-84
2023/10/11 01:48:20;;;;;;;18.92;8.30;;;;;;;15.12;100.00;100560.44;5007886;28;20133;-85
2023/10/11 01:54:55;;;;;;;17.88;8.25;;;;;;;15.03;100.00;100545.91;4913165;27;5866718;-85
2023/10/11 01:57:45;;;;;;;15.90;8.27;;;;;;;15.05;100.00;100552.00;5113035;28;20047;-85
2023/10/11 02:03:13;;;;;;;15.40;8.23;;;;;;;14.99;100.00;100558.56;5076861;28;20044;-86
2023/10/11 02:05:45;;;;;;;17.50;8.60;;;;;;;15.01;100.00;100550.47;5075843;28;20993;-85
2023/10/11 02:08:57;;;;;;;14.10;8.15;;;;;;;15.01;100.00;100554.00;5090971;28;20040;-86
2023/10/11 02:14:46;;;;;;;16.10;7.85;;;;;;;14.99;100.00;100561.22;5088925;28;20028;-86
2023/10/11 02:17:20;;;;;;;16.20;8.18;;;;;;;14.99;100.00;100555.91;5082611;28;20043;-86
2023/10/11 02:19:53;;;;;;;16.52;8.77;;;;;;;14.98;100.00;100551.50;5073295;28;20056;-86
2023/10/11 02:22:26;;;;;;;;;;;;;;;15.02;100.00;100561.03;5084995;28;20044;-85
2023/10/11 02:25:00;;;;;;;15.48;8.98;;;;;;;14.99;100.00;100550.56;5089128;28;19920;-87
2023/10/11 02:31:43;;;;;;;15.98;7.95;;;;;;;14.96;100.00;100556.09;5086613;28;20040;-86
2023/10/11 02:34:47;;;;;;;15.73;7.90;;;;;;;14.96;100.00;100553.41;5110645;28;20044;-86
2023/10/11 02:37:38;;;;;;;17.60;7.93;;;;;;;14.94;100.00;100547.34;5098198;28;20104;-86
2023/10/11 02:40:22;;;;;;;15.00;7.70;;;;;;;14.85;100.00;100542.56;5091005;28;20173;-84
2023/10/11 02:43:13;;;;;;;17.33;8.50;;;;;;;14.80;100.00;100544.66;5100270;28;20045;-84
2023/10/11 02:45:52;;;;;;;15.27;8.18;;;;;;;14.79;100.00;100539.44;5090917;28;20047;-86
2023/10/11 02:48:40;;;;;;;14.80;8.45;;;;;;;14.78;100.00;100543.91;5089116;28;20060;-86
2023/10/11 02:52:05;;;;;;;15.63;8.32;;;;;;;14.81;100.00;100530.38;5079982;28;20047;-86
2023/10/11 02:55:16;;;;;;;15.88;7.88;;;;;;;14.84;100.00;100530.19;5103161;28;20096;-87
2023/10/11 02:58:05;;;;;;;14.93;7.72;;;;;;;14.86;100.00;100538.09;5095418;28;20055;-86
2023/10/11 03:00:44;;;;;;;18.58;8.40;;;;;;;14.54;100.00;100476.97;5105705;28;20068;-85
2023/10/11 03:06:12;;;;;;;19.95;9.05;;;;;;;14.82;100.00;100521.44;5091379;28;20112;-86
2023/10/11 03:08:59;;;;;;;19.02;8.55;;;;;;;14.88;100.00;100521.06;5087276;28;20047;-85
2023/10/11 03:11:30;;;;;;;19.27;9.13;;;;;;;14.83;100.00;100522.28;5098468;28;20052;-86
2023/10/11 03:14:14;;;;;;;;;;;;;;;14.89;100.00;100537.91;5090909;28;20033;-85
2023/10/11 03:33:36;;;;;;;18.60;9.07;;;;;;;14.62;100.00;100513.84;6352467;22;20440;-87
2023/10/11 03:36:31;;;;;;;21.50;8.65;;;;;;;14.62;100.00;100516.50;6354236;22;20021;-84
2023/10/11 03:41:59;;;;;;;19.35;9.70;;;;;;;14.56;100.00;100514.19;6327110;22;20034;-85
2023/10/11 03:44:35;;;;;;;20.20;9.50;;;;;;;14.51;100.00;100505.63;6302595;22;20026;-83
2023/10/11 03:47:52;;;;;;;20.05;9.70;;;;;;;14.45;100.00;100509.53;6352493;22;20018;-83
2023/10/11 03:50:57;;;;;;;20.60;8.95;;;;;;;14.41;100.00;100500.00;6330899;22;20045;-86
2023/10/11 03:53:52;;;;;;;20.35;9.73;;;;;;;14.35;100.00;100506.53;6356524;22;20330;-84
2023/10/11 03:56:25;;;;;;;19.00;9.13;;;;;;;13.81;100.00;100412.22;6326808;22;20034;-85
2023/10/11 03:58:57;;;;;;;17.67;9.13;;;;;;;14.34;100.00;100504.81;6326759;22;20015;-85
2023/10/11 04:04:54;;;;;;;19.33;8.93;;;;;;;14.26;100.00;100504.44;4948721;27;4075000;-83
2023/10/11 04:07:40;;;;;;;20.30;10.02;;;;;;;14.15;100.00;100488.25;5062079;28;20144;-83
2023/10/11 04:10:19;;;;;;;18.20;8.57;;;;;;;14.25;100.00;100502.72;5053103;28;20071;-83
2023/10/11 04:12:49;;;;;;;19.33;9.70;;;;;;;14.24;100.00;100502.81;5045050;28;20041;-83
2023/10/11 04:15:33;;;;;;;17.35;8.82;;;;;;;14.21;100.00;100498.50;5049310;28;20044;-84
2023/10/11 04:18:20;;;;;;;19.58;9.30;;;;;;;14.22;100.00;100499.38;5067905;28;20509;-83
2023/10/11 04:21:02;;;;;;;18.77;9.00;;;;;;;14.20;100.00;100510.13;5073581;28;20087;-83
2023/10/11 04:23:55;;;;;;;18.65;9.15;;;;;;;14.18;100.00;100504.03;5049169;28;20045;-83
2023/10/11 04:26:53;;;;;;;16.95;8.60;;;;;;;14.16;100.00;100508.59;5048277;28;20104;-82
2023/10/11 04:29:47;;;;;;;16.67;8.90;;;;;;;14.07;100.00;100498.50;5049315;28;20061;-83
2023/10/11 04:32:40;;;;;;;19.08;9.80;;;;;;;14.08;100.00;100507.34;5048612;28;20119;-84
2023/10/11 04:38:16;;;;;;;20.10;8.85;;;;;;;13.91;100.00;100501.22;5051415;28;20045;-84
2023/10/11 04:41:18;;;;;;;15.15;8.77;;;;;;;13.97;100.00;100514.16;5048199;28;20130;-84
2023/10/11 04:44:04;;;;;;;19.08;8.63;;;;;;;13.96;100.00;100520.44;5050706;28;20049;-85
2023/10/11 04:49:32;;;;;;;16.27;8.85;;;;;;;13.97;100.00;100511.50;5070957;28;20051;-85
2023/10/11 04:52:10;;;;;;;19.08;9.48;;;;;;;14.00;100.00;100516.66;5058107;28;20041;-86
2023/10/11 04:54:53;;;;;;;;;;;;;;;14.03;100.00;100504.94;5059160;28;20059;-82
2023/10/11 04:57:36;;;;;;;16.33;9.43;;;;;;;14.05;100.00;100521.69;5070797;28;19913;-80
2023/10/11 05:00:08;;;;;;;19.80;9.88;;;;;;;14.05;100.00;100509.22;5068440;28;20104;-82
2023/10/11 05:02:38;;;;;;;16.83;8.85;;;;;;;13.94;100.00;100490.38;5069354;28;20045;-83
2023/10/11 05:05:18;;;;;;;17.80;8.90;;;;;;;14.09;100.00;100504.59;5081350;28;20152;-83
2023/10/11 05:08:04;;;;;;;19.33;9.68;;;;;;;14.14;100.00;100518.50;5074483;28;20045;-84
2023/10/11 05:10:43;;;;;;;17.08;8.98;;;;;;;14.11;100.00;100507.16;5069305;28;20056;-85
2023/10/11 05:13:29;;;;;;;17.35;9.00;;;;;;;14.15;100.00;100520.22;5052446;28;20068;-83
2023/10/11 05:16:06;;;;;;;19.65;8.80;;;;;;;14.13;100.00;100521.25;5028941;28;20068;-83
2023/10/11 05:18:42;;;;;;;17.30;9.13;;;;;;;14.08;100.00;100502.00;5052825;28;20048;-82
2023/10/11 05:21:15;;;;;;;17.25;8.32;;;;;;;14.14;100.00;100515.84;5054041;28;20154;-83
2023/10/11 05:24:13;;;;;;;16.77;8.82;;;;;;;14.10;100.00;100516.94;5021489;28;20051;-82
2023/10/11 05:26:47;;;;;;;19.40;9.52;;;;;;;14.03;100.00;100519.09;5053514;28;20557;-83
2023/10/11 05:30:09;;;;;;;17.27;8.67;;;;;;;13.91;100.00;100508.34;5064550;27;2436031;-82
2023/10/11 05:32:49;;;;;;;29.60;15.05;;;;;;;13.95;100.00;100525.84;5144568;27;21049;-84
2023/10/11 05:35:53;;;;;;;16.73;9.63;;;;;;;13.91;100.00;100527.81;5114313;28;20065;-83
2023/10/11 05:52:28;;;;;;;19.77;9.32;;;;;;;13.85;100.00;100508.72;5107656;28;20051;-83
2023/10/11 05:54:59;;;;;;;16.95;9.05;;;;;;;14.04;100.00;100530.63;5113912;28;20058;-83
2023/10/11 05:57:32;;;;;;;24.13;9.40;;;;;;;14.03;100.00;100532.41;5117509;28;20051;-84
2023/10/11 06:00:17;;;;;;;19.08;9.30;;;;;;;14.03;100.00;100536.88;5106829;28;20044;-83
2023/10/11 06:02:54;;;;;;;23.15;9.60;;;;;;;14.03;100.00;100540.41;5112079;28;20051;-83
2023/10/11 06:05:25;;;;;;;21.85;9.40;;;;;;;14.00;100.00;100553.94;5120664;28;20043;-83
2023/10/11 06:11:08;;;;;;;19.42;8.65;;;;;;;13.98;100.00;100539.00;5120914;28;20616;-83
2023/10/11 06:13:47;;;;;;;19.52;8.90;;;;;;;14.06;100.00;100544.69;5121084;28;20050;-84
2023/10/11 06:16:22;;;;;;;17.10;8.35;;;;;;;14.12;100.00;100522.19;5113821;27;20467;-84
2023/10/11 06:19:26;;;;;;;18.10;9.23;;;;;;;14.27;100.00;100566.56;5127622;28;20048;-82
2023/10/11 06:22:11;;;;;;;20.55;9.63;;;;;;;14.26;100.00;100567.50;5124449;28;20043;-84
2023/10/11 06:24:46;;;;;;;17.73;9.10;;;;;;;14.27;100.00;100563.88;5115095;28;20047;-83
2023/10/11 06:33:00;;;;;;;18.50;9.90;;;;;;;14.43;100.00;100558.53;5092615;28;20090;-83
2023/10/11 06:35:53;;;;;;;16.70;8.48;;;;;;;14.45;100.00;100556.66;5094140;28;20056;-84
2023/10/11 06:38:41;;;;;;;20.40;8.95;;;;;;;14.51;100.00;100548.25;5085638;28;20045;-84
2023/10/11 06:44:04;;;;;;;17.95;8.73;;;;;;;14.65;100.00;100551.78;5088469;28;20037;-82
2023/10/11 06:46:39;;;;;;;21.48;8.82;;;;;;;14.45;100.00;100519.34;5098200;28;20047;-82
2023/10/11 06:49:19;;;;;;;19.05;9.15;;;;;;;14.64;100.00;100549.22;5094817;28;20096;-83
2023/10/11 06:52:11;;;;;;;16.80;8.15;;;;;;;14.77;100.00;100566.19;5085936;28;20049;-85
2023/10/11 06:54:46;;;;;;;23.98;9.18;;;;;;;14.85;100.00;100574.56;5090976;28;20052;-82
2023/10/11 06:57:31;;;;;;;20.52;8.95;;;;;;;14.91;100.00;100573.34;5076171;28;20049;-84
2023/10/11 07:00:01;;;;;;;20.48;9.50;;;;;;;15.00;100.00;100567.41;5080963;28;20048;-86
2023/10/11 07:02:47;;;;;;;19.10;8.85;;;;;;;15.20;100.00;100555.50;5093070;28;20535;-81
2023/10/11 07:05:20;;;;;;;23.40;10.48;;;;;;;15.36;100.00;100548.25;5073026;28;20420;-84
2023/10/11 07:08:20;;;;;;;18.30;9.48;;;;;;;15.57;100.00;100544.22;5074730;28;20056;-81
2023/10/11 07:11:01;;;;;;;21.05;8.93;;;;;;;15.76;100.00;100531.34;5076046;28;20044;-84
2023/10/11 07:13:49;;;;;;;16.83;8.45;;;;;;;16.09;100.00;100544.28;5076031;28;20040;-84
2023/10/11 07:19:20;;;;;;;17.65;8.05;;;;;;;16.50;100.00;100553.97;5101877;28;20045;-83
2023/10/11 07:22:02;;;;;;;22.98;8.13;;;;;;;16.67;100.00;100542.16;5075367;28;20057;-83
2023/10/11 07:25:19;;;;;;;19.63;8.27;;;;;;;16.76;100.00;100545.00;5075266;28;20051;-83
2023/10/11 07:27:53;;;;;;;20.00;8.80;;;;;;;16.75;100.00;100515.69;5101611;28;20032;-82
2023/10/11 07:33:26;;;;;;;17.77;8.38;;;;;;;17.15;100.00;100545.84;5067158;28;20957;-83
2023/10/11 07:39:00;;;;;;;16.02;8.70;;;;;;;17.45;100.00;100532.06;5094377;28;20036;-82
2023/10/11 07:41:42;;;;;;;19.83;8.57;;;;;;;17.66;100.00;100559.09;5098980;28;20036;-85
2023/10/11 07:44:18;;;;;;;23.02;8.90;;;;;;;17.47;100.00;100572.97;5081088;28;20068;-85
2023/10/11 07:47:06;;;;;;;18.05;8.68;;;;;;;17.11;100.00;100549.69;5069277;28;20147;-83
2023/10/11 07:53:02;;;;;;;15.90;8.30;;;;;;;16.59;100.00;100525.72;5125382;28;20515;-84
2023/10/11 07:55:32;;;;;;;16.60;8.57;;;;;;;17.04;100.00;100573.34;5119934;28;20043;-82
2023/10/11 07:58:03;;;;;;;17.08;8.68;;;;;;;16.92;100.00;100539.44;5105115;28;20032;-81
2023/10/11 08:01:00;;;;;;;22.15;7.82;;;;;;;17.33;100.00;100563.22;5130101;27;20127;-84
2023/10/11 08:14:39;;;;;;;17.33;8.20;;;;;;;16.96;100.00;100573.03;5116688;28;20535;-84
2023/10/11 08:17:11;;;;;;;17.10;8.40;;;;;;;16.94;100.00;100536.66;5108398;28;20059;-83
2023/10/11 08:19:44;;;;;;;14.55;8.63;;;;;;;17.32;100.00;100557.97;5109077;28;20043;-83
2023/10/11 08:25:39;;;;;;;18.52;7.85;;;;;;;17.05;100.00;100534.06;5117020;28;20048;-84
2023/10/11 08:28:19;;;;;;;21.75;8.55;;;;;;;16.99;100.00;100572.84;5120522;28;20043;-84
2023/10/11 08:34:10;;;;;;;17.48;7.97;;;;;;;16.72;100.00;100548.00;5127741;28;20027;-83
2023/10/11 08:36:54;;;;;;;16.10;8.48;;;;;;;16.98;100.00;100568.44;5121343;28;20039;-81
2023/10/11 08:39:41;;;;;;;21.15;8.95;;;;;;;17.15;100.00;100562.75;5123981;28;20040;-84
2023/10/11 08:47:58;;;;;;;18.10;8.52;;;;;;;17.65;100.00;100552.00;5127990;28;20031;-83
2023/10/11 08:53:47;;;;;;;17.10;7.82;;;;;;;17.56;100.00;100555.34;5112997;28;20102;-85
2023/10/11 08:56:34;;;;;;;16.10;8.43;;;;;;;17.59;100.00;100528.34;5112732;28;20457;-82
2023/10/11 09:09:42;;;;;;;16.90;7.68;;;;;;;18.60;100.00;100554.59;5098376;28;20658;-83
2023/10/11 09:12:24;;;;;;;19.45;7.55;;;;;;;18.52;100.00;100523.00;5096034;28;20029;-83
2023/10/11 09:21:14;;;;;;;16.67;7.55;;;;;;;18.45;100.00;100545.88;5069170;28;20043;-84
2023/10/11 09:27:18;;;;;;;13.98;7.22;;;;;;;18.82;100.00;100543.06;5075667;28;20048;-84
2023/10/11 09:29:57;;;;;;;17.58;7.30;;;;;;;19.02;100.00;100536.13;5072284;28;20143;-84
2023/10/11 09:38:39;;;;;;;18.75;8.43;;;;;;;19.36;100.00;100534.25;5096146;28;20162;-82
2023/10/11 09:41:28;;;;;;;17.38;7.78;;;;;;;19.31;100.00;100533.75;5071788;28;20060;-82
2023/10/11 09:55:59;;;;;;;13.63;6.70;;;;;;;19.91;99.03;100546.69;5075441;28;20044;-83
2023/10/11 09:58:47;;;;;;;14.68;6.97;;;;;;;19.91;97.79;100534.13;5087362;28;20067;-85
2023/10/11 10:01:32;;;;;;;12.43;6.90;;;;;;;19.94;97.66;100522.25;5108052;28;20082;-82
2023/10/11 10:07:25;;;;;;;14.75;6.95;;;;;;;20.31;91.77;100534.28;5078043;28;19924;-84
2023/10/11 10:13:06;;;;;;;15.00;7.00;;;;;;;20.62;89.05;100511.00;5076900;28;20087;-85
2023/10/11 10:19:34;;;;;;;11.93;6.70;;;;;;;20.92;89.47;100520.94;5081222;28;20034;-83
2023/10/11 10:29:01;;;;;;;13.30;6.82;;;;;;;20.88;88.75;100527.56;5057673;28;20075;-83
2023/10/11 10:39:36;;;;;;;13.38;6.28;;;;;;;21.30;85.40;100504.09;5074214;28;20041;-84
2023/10/11 10:42:26;;;;;;;14.48;6.63;;;;;;;21.25;84.64;100455.16;5055297;28;20079;-82
2023/10/11 10:44:59;;;;;;;18.13;6.50;;;;;;;21.68;82.66;100503.31;5052493;28;20053;-84
2023/10/11 10:50:32;;;;;;;12.88;6.03;;;;;;;21.58;83.67;100497.03;5066480;28;20059;-84
2023/10/11 10:53:03;;;;;;;16.02;7.05;;;;;;;21.61;81.11;100501.28;5084497;28;20087;-81
2023/10/11 10:55:39;;;;;;;13.75;5.85;;;;;;;21.57;83.36;100500.72;5045972;28;20041;-83
2023/10/11 10:58:24;;;;;;;17.60;5.82;;;;;;;21.65;82.21;100502.72;5073908;28;20046;-83
2023/10/11 11:06:59;;;;;;;13.73;5.90;;;;;;;21.87;81.30;100472.81;5077867;28;20052;-83
2023/10/11 11:09:42;;;;;;;19.35;6.53;;;;;;;21.95;78.17;100459.47;5082149;28;20037;-83
2023/10/11 11:12:14;;;;;;;15.38;5.40;;;;;;;22.09;78.98;100468.97;5060892;28;20378;-83
2023/10/11 11:14:58;;;;;;;14.02;5.28;;;;;;;21.98;78.43;100447.53;5049985;28;20029;-82
2023/10/11 11:17:47;;;;;;;17.85;5.82;;;;;;;22.01;78.86;100450.00;5039172;28;20065;-83
2023/10/11 11:20:32;;;;;;;14.55;5.88;;;;;;;21.97;79.81;100454.78;5058780;28;20049;-83
2023/10/11 11:23:01;;;;;;;15.30;5.53;;;;;;;22.14;77.01;100476.66;5042373;28;20038;-85
2023/10/11 11:25:36;;;;;;;16.08;5.85;;;;;;;22.26;77.77;100460.16;5024101;28;20056;-85
2023/10/11 11:28:17;;;;;;;12.43;5.38;;;;;;;22.34;76.95;100471.09;5040878;28;20041;-85
2023/10/11 11:44:19;;;;;;;16.90;6.20;;;;;;;23.22;68.83;100445.44;5083984;28;20762;-83
2023/10/11 11:46:51;;;;;;;19.67;5.70;;;;;;;23.05;68.07;100401.19;5082989;28;20037;-83
2023/10/11 11:49:23;;;;;;;17.70;6.25;;;;;;;23.42;69.54;100438.03;5059350;28;20053;-82
2023/10/11 11:52:05;;;;;;;13.90;5.57;;;;;;;23.51;67.45;100430.84;5053961;28;20124;-84
2023/10/11 11:54:35;;;;;;;10.85;5.13;;;;;;;23.53;68.76;100418.91;5053223;28;20072;-83
2023/10/11 11:57:07;;;;;;;18.33;6.28;;;;;;;23.51;68.02;100393.91;5057679;28;20103;-84
2023/10/11 11:59:42;;;;;;;16.15;5.70;;;;;;;23.83;68.83;100404.13;5054450;28;20128;-84
2023/10/11 12:02:26;;;;;;;14.63;5.43;;;;;;;23.97;65.76;100390.03;5050021;28;20041;-83
2023/10/11 12:04:58;;;;;;;12.23;4.80;;;;;;;24.09;63.44;100398.75;5049797;28;20061;-84
2023/10/11 12:07:27;;;;;;;11.65;4.65;;;;;;;24.08;64.16;100400.59;5057910;28;20115;-84
2023/10/11 12:09:56;;;;;;;12.38;4.93;;;;;;;24.03;64.41;100384.00;5054025;28;20048;-85
2023/10/11 12:12:27;;;;;;;11.15;4.50;;;;;;;24.30;64.36;100391.13;5048879;28;20059;-84
2023/10/11 12:15:16;;;;;;;12.60;5.20;;;;;;;24.47;62.61;100394.78;5058340;28;20046;-84
2023/10/11 12:17:45;;;;;;;16.45;5.32;;;;;;;24.58;62.72;100391.78;5055352;28;20041;-84
2023/10/11 12:20:18;;;;;;;10.65;4.70;;;;;;;24.58;59.07;100361.16;5063626;28;20029;-84
2023/10/11 12:22:51;;;;;;;11.77;4.47;;;;;;;24.82;58.66;100375.66;5061673;28;20045;-84
2023/10/11 12:25:25;;;;;;;14.88;5.10;;;;;;;24.91;57.88;100362.13;5059281;28;20045;-83
2023/10/11 12:28:37;;;;;;;14.07;4.82;;;;;;;25.04;56.70;100373.34;5171162;27;24585;-83
2023/10/11 12:31:10;;;;;;;10.93;5.13;;;;;;;24.92;55.88;100361.13;5112542;28;20072;-84
2023/10/11 12:33:39;;;;;;;11.25;4.60;;;;;;;24.70;55.73;100311.97;5147436;27;20071;-83
2023/10/11 12:38:58;;;;;;;15.35;4.80;;;;;;;24.59;54.27;100293.31;5114993;28;20093;-85
2023/10/11 12:41:39;;;;;;;14.82;5.00;;;;;;;25.00;54.56;100359.31;5109653;28;20047;-84
2023/10/11 12:44:46;;;;;;;17.65;5.03;;;;;;;25.01;55.72;100358.31;5113469;28;20427;-83
2023/10/11 12:47:30;;;;;;;12.77;5.13;;;;;;;25.06;56.25;100346.94;5109020;28;20044;-84
2023/10/11 12:50:08;;;;;;;13.80;5.22;;;;;;;25.09;51.50;100352.03;5108506;28;20362;-84
2023/10/11 12:52:39;;;;;;;15.88;4.80;;;;;;;25.15;50.86;100348.69;5120146;28;20036;-82
2023/10/11 12:58:11;;;;;;;15.68;4.53;;;;;;;25.20;50.61;100319.19;5113188;28;20044;-85
2023/10/11 13:00:48;;;;;;;9.35;4.70;;;;;;;25.25;47.27;100326.84;5112147;28;20038;-84
2023/10/11 13:06:03;;;;;;;10.88;4.43;;;;;;;25.43;47.26;100325.66;5117106;28;20027;-82
2023/10/11 13:08:33;;;;;;;11.38;4.57;;;;;;;25.38;47.96;100310.91;5121588;28;20067;-82
2023/10/11 13:11:01;;;;;;;10.00;4.25;;;;;;;25.27;48.67;100301.25;5118634;28;20047;-83
2023/10/11 13:13:29;;;;;;;12.43;4.63;;;;;;;25.43;47.30;100324.81;5107732;28;20048;-81
2023/10/11 13:16:00;;;;;;;10.43;4.70;;;;;;;25.39;48.03;100323.44;5096093;28;20040;-84
2023/10/11 13:18:37;;;;;;;10.95;4.30;;;;;;;25.37;47.44;100304.63;5116400;28;20123;-86
2023/10/11 13:21:10;;;;;;;15.32;4.20;;;;;;;25.46;46.65;100309.06;5111458;28;20059;-86
2023/10/11 13:23:43;;;;;;;12.75;4.20;;;;;;;25.47;48.67;100310.75;5104902;28;20043;-83
2023/10/11 13:26:18;;;;;;;10.65;3.92;;;;;;;25.34;48.36;100274.34;5118728;28;20187;-85
2023/10/11 13:28:48;;;;;;;10.68;4.13;;;;;;;25.32;47.56;100266.38;5111282;28;20039;-82
2023/10/11 13:31:29;;;;;;;11.07;4.53;;;;;;;25.55;45.16;100300.91;5113976;28;20054;-84
2023/10/11 13:34:09;;;;;;;9.25;4.00;;;;;;;25.53;45.19;100285.66;5127077;28;20059;-84
2023/10/11 13:36:39;;;;;;;8.07;4.22;;;;;;;25.55;44.56;100280.06;5122558;28;20102;-84
2023/10/11 13:39:25;;;;;;;17.75;4.25;;;;;;;25.37;44.28;100245.00;5107446;28;20045;-84
2023/10/11 13:42:37;;;;;;;12.00;4.78;;;;;;;25.59;43.61;100288.72;5045252;28;24477;-84
2023/10/11 13:47:54;;;;;;;11.52;4.10;;;;;;;25.49;44.15;100257.22;5001491;28;20092;-83
2023/10/11 13:50:35;;;;;;;8.77;4.38;;;;;;;25.63;43.28;100287.38;4975541;28;20473;-84
2023/10/11 13:55:51;;;;;;;11.25;4.80;;;;;;;25.72;43.93;100270.91;5004098;28;20051;-83
2023/10/11 13:58:25;;;;;;;8.73;4.20;;;;;;;25.67;42.59;100261.59;5000163;28;20126;-83
2023/10/11 14:01:01;;;;;;;8.73;4.05;;;;;;;25.46;42.50;100208.75;5000554;28;20407;-83
2023/10/11 14:06:42;;;;;;;8.30;3.42;;;;;;;25.52;43.19;100218.03;5012358;28;20059;-83
2023/10/11 14:18:56;;;;;;;7.05;3.78;;;;;;;25.69;43.09;100254.13;5007753;28;20042;-83
2023/10/11 14:21:36;;;;;;;9.43;4.38;;;;;;;25.69;43.08;100246.00;5007540;28;20042;-83
2023/10/11 14:24:07;;;;;;;13.60;4.05;;;;;;;25.70;43.17;100239.56;4999999;28;20042;-84
2023/10/11 14:26:36;;;;;;;11.18;4.40;;;;;;;25.49;43.41;100202.13;5006073;28;20110;-82
2023/10/11 14:29:10;;;;;;;9.15;4.00;;;;;;;25.72;43.17;100240.25;5015934;28;20063;-83
2023/10/11 14:31:42;;;;;;;6.05;3.55;;;;;;;25.68;43.63;100241.59;4995140;28;20103;-83
2023/10/11 14:34:13;;;;;;;9.50;3.92;;;;;;;25.52;43.06;100212.63;4998334;28;20055;-84
2023/10/11 14:36:44;;;;;;;11.13;4.10;;;;;;;25.34;43.60;100203.88;5000165;28;20110;-84
2023/10/11 14:39:18;;;;;;;11.55;3.72;;;;;;;25.37;43.39;100222.47;4990905;28;20110;-83
2023/10/11 14:41:54;;;;;;;7.32;3.92;;;;;;;25.34;43.27;100228.25;4991047;28;20070;-83
2023/10/11 14:44:29;;;;;;;9.35;4.10;;;;;;;25.31;43.81;100239.44;4993049;28;20042;-84
2023/10/11 14:46:57;;;;;;;9.70;4.15;;;;;;;25.23;44.16;100229.44;4990903;28;20090;-84
2023/10/11 14:49:35;;;;;;;9.95;4.00;;;;;;;25.23;44.30;100232.13;4996241;28;20447;-83
2023/10/11 14:52:07;;;;;;;11.90;4.28;;;;;;;25.21;44.52;100227.91;4987170;28;20047;-84
2023/10/11 14:54:39;;;;;;;10.95;4.38;;;;;;;25.09;44.29;100208.44;4981501;28;20046;-83
2023/10/11 14:57:16;;;;;;;9.75;3.75;;;;;;;25.21;45.57;100231.47;5001916;28;20050;-83
2023/10/11 14:59:49;;;;;;;9.82;4.22;;;;;;;;;;4969095;28;20613;-82
2023/10/11 15:02:28;;;;;;;9.93;4.40;;;;;;;;;;4981607;28;20047;-85
2023/10/11 15:05:15;;;;;;;13.80;4.15;;;;;;;24.99;46.49;100207.78;4994081;28;20141;-83
2023/10/11 15:08:08;;;;;;;10.38;4.30;;;;;;;24.88;46.46;100216.19;4972790;28;20047;-83
2023/10/11 15:13:22;;;;;;;8.30;4.28;;;;;;;24.61;47.67;100204.66;4982948;28;20066;-82
2023/10/11 15:16:05;;;;;;;10.13;4.18;;;;;;;24.26;47.75;100153.50;4998529;28;20055;-83
2023/10/11 15:21:38;;;;;;;12.55;4.10;;;;;;;24.54;48.11;100219.88;4979643;28;20530;-84
2023/10/11 15:24:16;;;;;;;12.00;4.38;;;;;;;24.47;48.33;100213.44;4993939;28;20065;-83
2023/10/11 15:26:54;;;;;;;9.98;4.68;;;;;;;24.25;48.76;100182.41;4978664;28;20066;-83
2023/10/11 15:29:30;;;;;;;9.07;4.00;;;;;;;24.31;48.43;100200.69;4978640;28;20130;-84
2023/10/11 15:32:03;;;;;;;11.65;4.25;;;;;;;24.20;48.94;100184.75;4964607;28;20135;-83
2023/10/11 15:34:42;;;;;;;12.75;4.50;;;;;;;24.29;48.90;100220.81;4981801;28;20073;-84
2023/10/11 15:37:13;;;;;;;12.88;4.20;;;;;;;24.22;49.08;100225.16;5004976;28;20050;-84
2023/10/11 15:39:42;;;;;;;9.20;3.83;;;;;;;23.96;49.09;100193.59;4981542;28;20051;-84
2023/10/11 15:42:13;;;;;;;12.95;3.88;;;;;;;24.04;49.28;100223.41;4981683;28;20112;-84
2023/10/11 15:44:46;;;;;;;14.18;4.15;;;;;;;23.97;49.82;100230.47;4966893;28;20078;-84
2023/10/11 15:47:19;;;;;;;15.80;4.90;;;;;;;23.89;49.80;100225.03;4983789;28;20039;-83
2023/10/11 15:49:57;;;;;;;9.30;4.50;;;;;;;23.81;50.17;100222.28;4976014;28;20131;-83
2023/10/11 15:52:30;;;;;;;18.42;7.57;;;;;;;23.68;51.32;100222.72;4977125;28;20039;-82
2023/10/11 15:55:00;;;;;;;36.15;15.88;;;;;;;23.66;52.49;100223.88;4973717;28;20070;-83
2023/10/11 15:57:31;;;;;;;11.32;4.97;;;;;;;23.27;50.91;100186.47;4982168;28;20058;-83
2023/10/11 16:00:11;;;;;;;111.95;52.72;;;;;;;23.32;56.97;100207.56;4980926;28;20054;-82
2023/10/11 16:02:45;;;;;;;49.78;22.42;;;;;;;23.31;55.68;100225.63;4984813;28;20039;-83
2023/10/11 16:05:25;;;;;;;33.50;15.80;;;;;;;23.28;52.88;100236.78;4979606;28;20046;-82
2023/10/11 16:07:59;;;;;;;21.48;10.55;;;;;;;23.10;53.50;100208.94;4995607;28;20073;-82
2023/10/11 16:10:27;;;;;;;39.78;19.02;;;;;;;23.14;55.19;100231.91;4979677;28;20076;-82
2023/10/11 16:12:57;;;;;;;35.97;17.92;;;;;;;23.04;54.85;100236.56;4974286;28;20043;-82
2023/10/11 16:15:27;;;;;;;18.90;8.40;;;;;;;22.98;52.96;100231.81;4980823;28;20066;-82
2023/10/11 16:17:55;;;;;;;29.13;14.60;;;;;;;22.80;52.84;100206.66;4984356;28;20059;-84
2023/10/11 16:20:24;;;;;;;35.97;15.52;;;;;;;22.89;52.32;100209.28;4980830;28;20035;-82
2023/10/11 16:22:52;;;;;;;35.33;15.45;;;;;;;22.70;54.42;100198.59;4965455;28;20043;-81
2023/10/11 16:25:25;;;;;;;31.65;11.70;;;;;;;22.77;53.25;100225.88;4980941;28;20078;-83
2023/10/11 16:27:55;;;;;;;14.73;6.20;;;;;;;22.56;52.90;100202.69;4985858;28;20034;-83
2023/10/11 16:30:27;;;;;;;12.07;6.15;;;;;;;22.64;53.36;100218.13;4981072;28;20046;-83
2023/10/11 16:32:57;;;;;;;14.20;7.22;;;;;;;22.55;54.13;100222.56;4978677;28;20047;-84